OAL892 FIMP-FMMI
Flight info
| Callsign | OAL892 |
|---|---|
| Flight time | 1h 37m |
| Altitude | 43000 |
| Route | RASMA UA400 TE |
| Aircraft | C750/M-SBDE3FGHRWXY/S |
Departure
| Time | 2026-04-28 18:07 |
|---|---|
| Airport | Sir Seewoosagur Ramgoolam International Airport (FIMP) |
Arrival
| Time | 2026-04-28 19:45 |
|---|---|
| Airport | Ivato International Airport (FMMI) |
| Time | Latitude | Longitude | Altitude | Speed | Heading |
|---|---|---|---|---|---|
| 2026-04-28 17:43 | -20.43074 | 57.67632 | 175 ft | 0 kts | 205° |
| 2026-04-28 17:53 | -20.43075 | 57.67630 | 175 ft | 2 kts | 216° |
| 2026-04-28 17:53 | -20.43069 | 57.67616 | 176 ft | 3 kts | 330° |
| 2026-04-28 17:54 | -20.43040 | 57.67619 | 176 ft | 6 kts | 14° |
| 2026-04-28 17:54 | -20.42992 | 57.67655 | 176 ft | 11 kts | 56° |
| 2026-04-28 17:54 | -20.43012 | 57.67752 | 173 ft | 17 kts | 118° |
| 2026-04-28 17:54 | -20.43066 | 57.67863 | 173 ft | 16 kts | 118° |
| 2026-04-28 17:55 | -20.43116 | 57.67956 | 175 ft | 13 kts | 119° |
| 2026-04-28 17:55 | -20.43156 | 57.68036 | 175 ft | 12 kts | 117° |
| 2026-04-28 17:55 | -20.43195 | 57.68118 | 176 ft | 13 kts | 117° |
| 2026-04-28 17:55 | -20.43231 | 57.68209 | 178 ft | 13 kts | 115° |
| 2026-04-28 17:56 | -20.43271 | 57.68296 | 179 ft | 13 kts | 116° |
| 2026-04-28 17:56 | -20.43267 | 57.68388 | 178 ft | 14 kts | 51° |
| 2026-04-28 17:56 | -20.43280 | 57.68489 | 176 ft | 17 kts | 118° |
| 2026-04-28 17:56 | -20.43315 | 57.68563 | 174 ft | 17 kts | 117° |
| 2026-04-28 17:57 | -20.43369 | 57.68678 | 174 ft | 16 kts | 116° |
| 2026-04-28 17:57 | -20.43421 | 57.68786 | 171 ft | 17 kts | 118° |
| 2026-04-28 17:57 | -20.43477 | 57.68898 | 169 ft | 17 kts | 118° |
| 2026-04-28 17:57 | -20.43527 | 57.69002 | 171 ft | 16 kts | 116° |
| 2026-04-28 17:58 | -20.43581 | 57.69116 | 170 ft | 18 kts | 117° |
| 2026-04-28 17:58 | -20.43636 | 57.69228 | 171 ft | 16 kts | 117° |
| 2026-04-28 17:58 | -20.43637 | 57.69321 | 172 ft | 13 kts | 34° |
| 2026-04-28 17:58 | -20.43619 | 57.69331 | 171 ft | 0 kts | 26° |
| 2026-04-28 18:05 | -20.43618 | 57.69332 | 171 ft | 2 kts | 26° |
| 2026-04-28 18:05 | -20.43586 | 57.69349 | 171 ft | 6 kts | 26° |
| 2026-04-28 18:06 | -20.43549 | 57.69369 | 171 ft | 7 kts | 26° |
| 2026-04-28 18:06 | -20.43505 | 57.69361 | 171 ft | 8 kts | 296° |
| 2026-04-28 18:06 | -20.43496 | 57.69339 | 170 ft | 1 kts | 294° |
| 2026-04-28 18:06 | -20.43493 | 57.69331 | 170 ft | 2 kts | 294° |
| 2026-04-28 18:07 | -20.43458 | 57.69253 | 170 ft | 37 kts | 296° |
| 2026-04-28 18:07 | -20.43157 | 57.68645 | 176 ft | 144 kts | 298° |
| 2026-04-28 18:07 | -20.42662 | 57.67621 | 572 ft | 159 kts | 299° |
| 2026-04-28 18:07 | -20.42242 | 57.66474 | 1098 ft | 174 kts | 289° |
| 2026-04-28 18:08 | -20.42098 | 57.65142 | 1625 ft | 196 kts | 261° |
| 2026-04-28 18:08 | -20.42525 | 57.63726 | 2221 ft | 209 kts | 253° |
| 2026-04-28 18:08 | -20.42746 | 57.62096 | 2575 ft | 237 kts | 272° |
| 2026-04-28 18:08 | -20.42498 | 57.60263 | 2976 ft | 265 kts | 283° |
| 2026-04-28 18:09 | -20.42110 | 57.58271 | 3726 ft | 278 kts | 282° |
| 2026-04-28 18:09 | -20.41814 | 57.56235 | 4837 ft | 280 kts | 279° |
| 2026-04-28 18:09 | -20.41561 | 57.54164 | 5813 ft | 284 kts | 279° |
| 2026-04-28 18:09 | -20.41277 | 57.52073 | 6791 ft | 285 kts | 280° |
| 2026-04-28 18:10 | -20.40975 | 57.49970 | 7739 ft | 291 kts | 280° |
| 2026-04-28 18:10 | -20.40673 | 57.47821 | 8805 ft | 293 kts | 279° |
| 2026-04-28 18:10 | -20.40378 | 57.45668 | 9859 ft | 297 kts | 280° |
| 2026-04-28 18:10 | -20.40068 | 57.43439 | 10368 ft | 315 kts | 279° |
| 2026-04-28 18:11 | -20.39735 | 57.41061 | 10539 ft | 343 kts | 279° |
| 2026-04-28 18:11 | -20.39371 | 57.38453 | 10750 ft | 365 kts | 279° |
| 2026-04-28 18:11 | -20.39002 | 57.35789 | 11675 ft | 361 kts | 279° |
| 2026-04-28 18:11 | -20.38632 | 57.33126 | 12411 ft | 366 kts | 279° |
| 2026-04-28 18:12 | -20.38254 | 57.30431 | 13124 ft | 369 kts | 279° |
| 2026-04-28 18:12 | -20.37873 | 57.27712 | 13845 ft | 373 kts | 279° |
| 2026-04-28 18:12 | -20.37489 | 57.24973 | 14483 ft | 375 kts | 279° |
| 2026-04-28 18:12 | -20.37101 | 57.22211 | 15127 ft | 378 kts | 279° |
| 2026-04-28 18:13 | -20.36711 | 57.19428 | 15783 ft | 381 kts | 279° |
| 2026-04-28 18:13 | -20.36316 | 57.16620 | 16491 ft | 383 kts | 279° |
| 2026-04-28 18:13 | -20.35919 | 57.13797 | 17147 ft | 387 kts | 279° |
| 2026-04-28 18:13 | -20.35518 | 57.10955 | 17906 ft | 388 kts | 279° |
| 2026-04-28 18:14 | -20.35114 | 57.08094 | 18547 ft | 392 kts | 279° |
| 2026-04-28 18:14 | -20.34707 | 57.05207 | 19150 ft | 396 kts | 279° |
| 2026-04-28 18:14 | -20.34295 | 57.02292 | 19828 ft | 399 kts | 279° |
| 2026-04-28 18:14 | -20.33879 | 56.99355 | 20478 ft | 402 kts | 279° |
| 2026-04-28 18:15 | -20.33459 | 56.96393 | 21158 ft | 405 kts | 279° |
| 2026-04-28 18:15 | -20.33035 | 56.93410 | 21835 ft | 408 kts | 279° |
| 2026-04-28 18:15 | -20.32609 | 56.90408 | 22513 ft | 411 kts | 279° |
| 2026-04-28 18:15 | -20.32183 | 56.87419 | 23173 ft | 414 kts | 279° |
| 2026-04-28 18:16 | -20.31748 | 56.84370 | 23789 ft | 417 kts | 279° |
| 2026-04-28 18:16 | -20.31312 | 56.81308 | 24373 ft | 420 kts | 279° |
| 2026-04-28 18:16 | -20.30871 | 56.78223 | 24949 ft | 422 kts | 279° |
| 2026-04-28 18:16 | -20.30427 | 56.75119 | 25513 ft | 425 kts | 279° |
| 2026-04-28 18:17 | -20.29980 | 56.71995 | 26072 ft | 428 kts | 279° |
| 2026-04-28 18:17 | -20.29529 | 56.68853 | 26627 ft | 431 kts | 279° |
| 2026-04-28 18:17 | -20.29075 | 56.65690 | 27180 ft | 433 kts | 279° |
| 2026-04-28 18:17 | -20.28617 | 56.62507 | 27723 ft | 436 kts | 279° |
| 2026-04-28 18:18 | -20.28155 | 56.59300 | 28269 ft | 439 kts | 279° |
| 2026-04-28 18:18 | -20.27690 | 56.56071 | 28791 ft | 443 kts | 279° |
| 2026-04-28 18:18 | -20.27220 | 56.52813 | 29282 ft | 446 kts | 279° |
| 2026-04-28 18:18 | -20.26906 | 56.50645 | 29615 ft | 448 kts | 279° |
| 2026-04-28 18:19 | -20.26269 | 56.46237 | 30222 ft | 452 kts | 279° |
| 2026-04-28 18:19 | -20.25949 | 56.44035 | 30470 ft | 455 kts | 279° |
| 2026-04-28 18:19 | -20.25306 | 56.39604 | 30956 ft | 459 kts | 279° |
| 2026-04-28 18:19 | -20.24815 | 56.36225 | 31315 ft | 463 kts | 279° |
| 2026-04-28 18:20 | -20.24320 | 56.32823 | 31669 ft | 466 kts | 279° |
| 2026-04-28 18:20 | -20.23822 | 56.29400 | 32015 ft | 470 kts | 278° |
| 2026-04-28 18:20 | -20.23319 | 56.25947 | 32322 ft | 474 kts | 278° |
| 2026-04-28 18:20 | -20.22982 | 56.23644 | 32545 ft | 476 kts | 278° |
| 2026-04-28 18:21 | -20.22471 | 56.20149 | 32884 ft | 479 kts | 278° |
| 2026-04-28 18:21 | -20.21955 | 56.16634 | 33217 ft | 483 kts | 278° |
| 2026-04-28 18:21 | -20.21436 | 56.13093 | 33544 ft | 486 kts | 278° |
| 2026-04-28 18:21 | -20.20912 | 56.09527 | 33862 ft | 489 kts | 277° |
| 2026-04-28 18:22 | -20.20383 | 56.05935 | 34299 ft | 488 kts | 277° |
| 2026-04-28 18:22 | -20.19874 | 56.02366 | 34744 ft | 487 kts | 276° |
| 2026-04-28 18:22 | -20.19431 | 55.98797 | 35162 ft | 486 kts | 275° |
| 2026-04-28 18:22 | -20.18958 | 55.95229 | 35603 ft | 486 kts | 276° |
| 2026-04-28 18:23 | -20.18479 | 55.91672 | 36049 ft | 486 kts | 275° |
| 2026-04-28 18:23 | -20.18019 | 55.88108 | 36502 ft | 485 kts | 275° |
| 2026-04-28 18:23 | -20.17568 | 55.84555 | 36980 ft | 484 kts | 274° |
| 2026-04-28 18:23 | -20.17102 | 55.80997 | 37469 ft | 484 kts | 274° |
| 2026-04-28 18:24 | -20.16632 | 55.77457 | 37947 ft | 483 kts | 274° |
| 2026-04-28 18:24 | -20.16322 | 55.75109 | 38201 ft | 484 kts | 273° |
| 2026-04-28 18:24 | -20.15690 | 55.70399 | 38760 ft | 485 kts | 273° |
| 2026-04-28 18:24 | -20.15240 | 55.66848 | 39210 ft | 483 kts | 272° |
| 2026-04-28 18:25 | -20.14791 | 55.63300 | 39686 ft | 482 kts | 273° |
| 2026-04-28 18:25 | -20.14319 | 55.59778 | 40146 ft | 480 kts | 273° |
| 2026-04-28 18:25 | -20.13844 | 55.56264 | 40602 ft | 479 kts | 273° |
| 2026-04-28 18:26 | -20.12924 | 55.49269 | 41495 ft | 476 kts | 272° |
| 2026-04-28 18:26 | -20.12427 | 55.45790 | 41934 ft | 475 kts | 273° |
| 2026-04-28 18:26 | -20.11918 | 55.42326 | 42354 ft | 473 kts | 273° |
| 2026-04-28 18:26 | -20.11432 | 55.38872 | 42767 ft | 469 kts | 272° |
| 2026-04-28 18:27 | -20.10964 | 55.35476 | 42930 ft | 471 kts | 272° |
| 2026-04-28 18:27 | -20.09979 | 55.28496 | 42933 ft | 479 kts | 273° |
| 2026-04-28 18:28 | -20.08984 | 55.21501 | 42930 ft | 476 kts | 272° |
| 2026-04-28 18:28 | -20.07999 | 55.14596 | 42925 ft | 469 kts | 272° |
| 2026-04-28 18:29 | -20.07031 | 55.07792 | 42925 ft | 467 kts | 272° |
| 2026-04-28 18:29 | -20.06049 | 55.00988 | 42930 ft | 466 kts | 272° |
| 2026-04-28 18:30 | -20.05072 | 54.94135 | 42941 ft | 472 kts | 272° |
| 2026-04-28 18:30 | -20.04071 | 54.87230 | 42949 ft | 472 kts | 272° |
| 2026-04-28 18:31 | -20.03078 | 54.80339 | 42953 ft | 470 kts | 272° |
| 2026-04-28 18:31 | -20.02082 | 54.73466 | 42937 ft | 470 kts | 272° |
| 2026-04-28 18:32 | -20.01086 | 54.66606 | 42937 ft | 469 kts | 272° |
| 2026-04-28 18:32 | -20.00086 | 54.59736 | 42938 ft | 470 kts | 272° |
| 2026-04-28 18:33 | -19.99082 | 54.52865 | 42945 ft | 470 kts | 272° |
| 2026-04-28 18:33 | -19.98076 | 54.46001 | 42933 ft | 468 kts | 272° |
| 2026-04-28 18:34 | -19.97071 | 54.39169 | 42928 ft | 468 kts | 272° |
| 2026-04-28 18:34 | -19.96068 | 54.32334 | 42928 ft | 468 kts | 272° |
| 2026-04-28 18:35 | -19.95056 | 54.25487 | 42933 ft | 469 kts | 272° |
| 2026-04-28 18:35 | -19.94043 | 54.18644 | 42933 ft | 468 kts | 272° |
| 2026-04-28 18:36 | -19.93034 | 54.11844 | 42927 ft | 468 kts | 272° |
| 2026-04-28 18:36 | -19.92016 | 54.05009 | 42935 ft | 468 kts | 272° |
| 2026-04-28 18:37 | -19.90989 | 53.98131 | 42925 ft | 468 kts | 272° |
| 2026-04-28 18:37 | -19.89967 | 53.91336 | 42936 ft | 470 kts | 272° |
| 2026-04-28 18:38 | -19.88930 | 53.84479 | 42944 ft | 470 kts | 272° |
| 2026-04-28 18:38 | -19.87885 | 53.77622 | 42944 ft | 469 kts | 272° |
| 2026-04-28 18:39 | -19.86837 | 53.70796 | 42933 ft | 468 kts | 273° |
| 2026-04-28 18:39 | -19.85780 | 53.63954 | 42938 ft | 470 kts | 273° |
| 2026-04-28 18:40 | -19.84722 | 53.57138 | 42946 ft | 471 kts | 273° |
| 2026-04-28 18:40 | -19.83648 | 53.50274 | 42942 ft | 470 kts | 273° |
| 2026-04-28 18:41 | -19.82566 | 53.43409 | 42937 ft | 470 kts | 273° |
| 2026-04-28 18:41 | -19.81485 | 53.36602 | 42924 ft | 470 kts | 273° |
| 2026-04-28 18:42 | -19.80391 | 53.29763 | 42935 ft | 469 kts | 273° |
| 2026-04-28 18:42 | -19.79288 | 53.22917 | 42940 ft | 470 kts | 273° |
| 2026-04-28 18:43 | -19.78179 | 53.16057 | 42941 ft | 472 kts | 273° |
| 2026-04-28 18:43 | -19.77071 | 53.09215 | 42943 ft | 472 kts | 273° |
| 2026-04-28 18:44 | -19.75950 | 53.02347 | 42941 ft | 471 kts | 273° |
| 2026-04-28 18:44 | -19.74258 | 52.92067 | 42933 ft | 472 kts | 274° |
| 2026-04-28 18:45 | -19.73119 | 52.85188 | 42930 ft | 472 kts | 274° |
| 2026-04-28 18:45 | -19.71974 | 52.78317 | 42936 ft | 472 kts | 274° |
| 2026-04-28 18:46 | -19.70821 | 52.71442 | 42940 ft | 475 kts | 274° |
| 2026-04-28 18:46 | -19.69659 | 52.64526 | 42947 ft | 476 kts | 274° |
| 2026-04-28 18:47 | -19.68499 | 52.57675 | 42943 ft | 474 kts | 274° |
| 2026-04-28 18:47 | -19.67322 | 52.50793 | 42933 ft | 473 kts | 274° |
| 2026-04-28 18:48 | -19.66137 | 52.43908 | 42933 ft | 475 kts | 274° |
| 2026-04-28 18:48 | -19.64943 | 52.37009 | 42937 ft | 475 kts | 274° |
| 2026-04-28 18:49 | -19.64151 | 52.32439 | 42942 ft | 474 kts | 274° |
| 2026-04-28 18:49 | -19.62865 | 52.23230 | 42931 ft | 472 kts | 271° |
| 2026-04-28 18:50 | -19.62101 | 52.16317 | 42934 ft | 471 kts | 270° |
| 2026-04-28 18:50 | -19.61500 | 52.09377 | 42538 ft | 479 kts | 269° |
| 2026-04-28 18:51 | -19.61231 | 52.05813 | 41925 ft | 488 kts | 270° |
| 2026-04-28 18:51 | -19.60803 | 52.02221 | 41276 ft | 493 kts | 272° |
| 2026-04-28 18:51 | -19.60272 | 51.98629 | 40655 ft | 493 kts | 274° |
| 2026-04-28 18:51 | -19.59692 | 51.95045 | 40049 ft | 491 kts | 274° |
| 2026-04-28 18:52 | -19.59101 | 51.91484 | 39459 ft | 489 kts | 274° |
| 2026-04-28 18:52 | -19.58679 | 51.87908 | 38881 ft | 486 kts | 269° |
| 2026-04-28 18:52 | -19.58421 | 51.84335 | 38269 ft | 486 kts | 268° |
| 2026-04-28 18:52 | -19.58228 | 51.80739 | 37614 ft | 489 kts | 267° |
| 2026-04-28 18:53 | -19.58060 | 51.77128 | 37008 ft | 491 kts | 266° |
| 2026-04-28 18:53 | -19.57902 | 51.73562 | 36534 ft | 491 kts | 266° |
| 2026-04-28 18:53 | -19.57742 | 51.69937 | 36058 ft | 493 kts | 266° |
| 2026-04-28 18:53 | -19.57577 | 51.66300 | 35592 ft | 496 kts | 266° |
| 2026-04-28 18:54 | -19.57221 | 51.62634 | 35119 ft | 504 kts | 272° |
| 2026-04-28 18:54 | -19.56506 | 51.58965 | 34659 ft | 510 kts | 277° |
| 2026-04-28 18:54 | -19.55605 | 51.55311 | 34207 ft | 513 kts | 279° |
| 2026-04-28 18:54 | -19.54627 | 51.51663 | 33743 ft | 516 kts | 280° |
| 2026-04-28 18:55 | -19.53610 | 51.47999 | 33344 ft | 517 kts | 280° |
| 2026-04-28 18:55 | -19.52932 | 51.45590 | 33083 ft | 515 kts | 280° |
| 2026-04-28 18:55 | -19.51552 | 51.40748 | 32554 ft | 511 kts | 281° |
| 2026-04-28 18:55 | -19.50518 | 51.37156 | 32161 ft | 507 kts | 281° |
| 2026-04-28 18:56 | -19.49485 | 51.33593 | 31785 ft | 504 kts | 281° |
| 2026-04-28 18:56 | -19.48450 | 51.30052 | 31402 ft | 500 kts | 281° |
| 2026-04-28 18:56 | -19.47415 | 51.26548 | 31117 ft | 496 kts | 281° |
| 2026-04-28 18:56 | -19.46378 | 51.23069 | 30884 ft | 494 kts | 281° |
| 2026-04-28 18:57 | -19.45339 | 51.19598 | 30657 ft | 494 kts | 281° |
| 2026-04-28 18:57 | -19.44297 | 51.16130 | 30430 ft | 494 kts | 281° |
| 2026-04-28 18:57 | -19.43254 | 51.12672 | 30206 ft | 493 kts | 281° |
| 2026-04-28 18:57 | -19.42204 | 51.09214 | 29981 ft | 491 kts | 281° |
| 2026-04-28 18:58 | -19.41154 | 51.05772 | 29714 ft | 489 kts | 281° |
| 2026-04-28 18:58 | -19.40121 | 51.02387 | 29445 ft | 487 kts | 281° |
| 2026-04-28 18:58 | -19.39090 | 50.98987 | 29181 ft | 484 kts | 281° |
| 2026-04-28 18:58 | -19.38069 | 50.95598 | 28919 ft | 481 kts | 281° |
| 2026-04-28 18:59 | -19.37060 | 50.92220 | 28662 ft | 479 kts | 281° |
| 2026-04-28 18:59 | -19.36067 | 50.88863 | 28406 ft | 476 kts | 281° |
| 2026-04-28 18:59 | -19.35090 | 50.85526 | 28144 ft | 474 kts | 281° |
| 2026-04-28 18:59 | -19.34121 | 50.82193 | 27889 ft | 472 kts | 281° |
| 2026-04-28 19:00 | -19.33166 | 50.78885 | 27641 ft | 470 kts | 281° |
| 2026-04-28 19:00 | -19.32220 | 50.75580 | 27397 ft | 467 kts | 281° |
| 2026-04-28 19:00 | -19.31285 | 50.72287 | 27151 ft | 465 kts | 281° |
| 2026-04-28 19:00 | -19.30363 | 50.69012 | 26908 ft | 463 kts | 281° |
| 2026-04-28 19:01 | -19.29450 | 50.65740 | 26673 ft | 461 kts | 281° |
| 2026-04-28 19:01 | -19.28560 | 50.62526 | 26429 ft | 460 kts | 281° |
| 2026-04-28 19:01 | -19.27667 | 50.59280 | 26192 ft | 458 kts | 281° |
| 2026-04-28 19:01 | -19.26781 | 50.56038 | 25958 ft | 457 kts | 281° |
| 2026-04-28 19:02 | -19.25905 | 50.52807 | 25726 ft | 455 kts | 281° |
| 2026-04-28 19:02 | -19.25038 | 50.49585 | 25495 ft | 453 kts | 281° |
| 2026-04-28 19:02 | -19.24183 | 50.46378 | 25263 ft | 451 kts | 281° |
| 2026-04-28 19:02 | -19.23438 | 50.43167 | 25033 ft | 448 kts | 278° |
| 2026-04-28 19:03 | -19.22839 | 50.39944 | 24801 ft | 445 kts | 276° |
| 2026-04-28 19:03 | -19.22296 | 50.36721 | 24580 ft | 444 kts | 276° |
| 2026-04-28 19:03 | -19.21782 | 50.33540 | 24360 ft | 443 kts | 275° |
| 2026-04-28 19:03 | -19.21275 | 50.30332 | 24140 ft | 441 kts | 275° |
| 2026-04-28 19:04 | -19.20778 | 50.27136 | 23920 ft | 440 kts | 275° |
| 2026-04-28 19:04 | -19.20288 | 50.23939 | 23703 ft | 439 kts | 275° |
| 2026-04-28 19:04 | -19.19804 | 50.20755 | 23478 ft | 437 kts | 275° |
| 2026-04-28 19:04 | -19.19489 | 50.18657 | 23304 ft | 436 kts | 275° |
| 2026-04-28 19:05 | -19.19014 | 50.15487 | 23045 ft | 434 kts | 275° |
| 2026-04-28 19:05 | -19.18540 | 50.12344 | 22790 ft | 432 kts | 275° |
| 2026-04-28 19:05 | -19.18069 | 50.09217 | 22532 ft | 429 kts | 275° |
| 2026-04-28 19:05 | -19.17605 | 50.06106 | 22278 ft | 427 kts | 275° |
| 2026-04-28 19:06 | -19.17005 | 50.02002 | 21936 ft | 424 kts | 275° |
| 2026-04-28 19:06 | -19.16704 | 49.99924 | 21767 ft | 422 kts | 275° |
| 2026-04-28 19:06 | -19.16269 | 49.96861 | 21517 ft | 421 kts | 275° |
| 2026-04-28 19:06 | -19.15842 | 49.93812 | 21272 ft | 418 kts | 275° |
| 2026-04-28 19:07 | -19.15419 | 49.90768 | 21032 ft | 416 kts | 275° |
| 2026-04-28 19:07 | -19.15004 | 49.87745 | 20791 ft | 415 kts | 275° |
| 2026-04-28 19:07 | -19.14603 | 49.84762 | 20554 ft | 413 kts | 275° |
| 2026-04-28 19:07 | -19.14203 | 49.81732 | 20313 ft | 411 kts | 275° |
| 2026-04-28 19:08 | -19.13822 | 49.78777 | 20083 ft | 409 kts | 275° |
| 2026-04-28 19:08 | -19.13446 | 49.75800 | 19847 ft | 407 kts | 275° |
| 2026-04-28 19:08 | -19.13080 | 49.72840 | 19616 ft | 406 kts | 275° |
| 2026-04-28 19:08 | -19.12732 | 49.69883 | 19385 ft | 403 kts | 274° |
| 2026-04-28 19:09 | -19.12494 | 49.66935 | 19154 ft | 401 kts | 272° |
| 2026-04-28 19:09 | -19.12320 | 49.63997 | 18927 ft | 399 kts | 272° |
| 2026-04-28 19:09 | -19.12174 | 49.61076 | 18706 ft | 398 kts | 271° |
| 2026-04-28 19:09 | -19.12040 | 49.58153 | 18484 ft | 395 kts | 271° |
| 2026-04-28 19:10 | -19.11913 | 49.55257 | 18264 ft | 393 kts | 271° |
| 2026-04-28 19:10 | -19.11793 | 49.52386 | 18026 ft | 390 kts | 271° |
| 2026-04-28 19:10 | -19.11675 | 49.49517 | 17791 ft | 391 kts | 271° |
| 2026-04-28 19:10 | -19.11607 | 49.46646 | 17554 ft | 391 kts | 269° |
| 2026-04-28 19:11 | -19.11699 | 49.43753 | 17327 ft | 401 kts | 266° |
| 2026-04-28 19:11 | -19.11861 | 49.40770 | 17112 ft | 407 kts | 265° |
| 2026-04-28 19:11 | -19.12037 | 49.37804 | 16893 ft | 403 kts | 265° |
| 2026-04-28 19:11 | -19.12220 | 49.34846 | 16671 ft | 402 kts | 265° |
| 2026-04-28 19:12 | -19.12408 | 49.31894 | 16452 ft | 402 kts | 265° |
| 2026-04-28 19:12 | -19.12600 | 49.28941 | 16233 ft | 402 kts | 265° |
| 2026-04-28 19:12 | -19.12794 | 49.25994 | 16018 ft | 401 kts | 265° |
| 2026-04-28 19:12 | -19.12986 | 49.23051 | 15801 ft | 401 kts | 265° |
| 2026-04-28 19:13 | -19.13183 | 49.20115 | 15587 ft | 400 kts | 265° |
| 2026-04-28 19:13 | -19.13385 | 49.17184 | 15379 ft | 399 kts | 265° |
| 2026-04-28 19:13 | -19.13587 | 49.14294 | 15167 ft | 398 kts | 265° |
| 2026-04-28 19:13 | -19.13692 | 49.11338 | 14938 ft | 398 kts | 271° |
| 2026-04-28 19:14 | -19.13462 | 49.08432 | 14726 ft | 397 kts | 276° |
| 2026-04-28 19:14 | -19.13100 | 49.05536 | 14520 ft | 397 kts | 278° |
| 2026-04-28 19:14 | -19.12701 | 49.02644 | 14317 ft | 397 kts | 278° |
| 2026-04-28 19:14 | -19.12298 | 48.99799 | 14117 ft | 397 kts | 278° |
| 2026-04-28 19:15 | -19.11891 | 48.96915 | 13910 ft | 395 kts | 278° |
| 2026-04-28 19:15 | -19.11488 | 48.94040 | 13703 ft | 395 kts | 278° |
| 2026-04-28 19:15 | -19.11037 | 48.91178 | 13475 ft | 394 kts | 280° |
| 2026-04-28 19:15 | -19.10702 | 48.89292 | 13315 ft | 393 kts | 281° |
| 2026-04-28 19:16 | -19.09995 | 48.85499 | 12938 ft | 391 kts | 281° |
| 2026-04-28 19:16 | -19.09460 | 48.82688 | 12664 ft | 388 kts | 281° |
| 2026-04-28 19:16 | -19.08926 | 48.79913 | 12406 ft | 387 kts | 281° |
| 2026-04-28 19:16 | -19.08393 | 48.77168 | 12141 ft | 386 kts | 281° |
| 2026-04-28 19:17 | -19.07850 | 48.74391 | 11869 ft | 384 kts | 281° |
| 2026-04-28 19:17 | -19.07305 | 48.71628 | 11615 ft | 383 kts | 281° |
| 2026-04-28 19:17 | -19.06758 | 48.68879 | 11353 ft | 382 kts | 281° |
| 2026-04-28 19:17 | -19.06209 | 48.66133 | 11093 ft | 381 kts | 281° |
| 2026-04-28 19:18 | -19.05660 | 48.63403 | 10852 ft | 379 kts | 281° |
| 2026-04-28 19:18 | -19.05108 | 48.60671 | 10594 ft | 379 kts | 281° |
| 2026-04-28 19:18 | -19.04559 | 48.57970 | 10338 ft | 367 kts | 281° |
| 2026-04-28 19:18 | -19.04032 | 48.55414 | 10093 ft | 346 kts | 281° |
| 2026-04-28 19:19 | -19.03529 | 48.53002 | 9815 ft | 326 kts | 282° |
| 2026-04-28 19:19 | -19.03058 | 48.50761 | 9762 ft | 300 kts | 282° |
| 2026-04-28 19:19 | -19.02616 | 48.48670 | 9762 ft | 285 kts | 282° |
| 2026-04-28 19:19 | -19.02165 | 48.46647 | 9782 ft | 284 kts | 284° |
| 2026-04-28 19:20 | -19.01616 | 48.44589 | 9793 ft | 299 kts | 285° |
| 2026-04-28 19:20 | -19.01023 | 48.42461 | 9796 ft | 303 kts | 285° |
| 2026-04-28 19:20 | -19.00424 | 48.40324 | 9798 ft | 304 kts | 285° |
| 2026-04-28 19:20 | -18.99822 | 48.38188 | 9814 ft | 304 kts | 285° |
| 2026-04-28 19:21 | -18.99222 | 48.36049 | 9813 ft | 303 kts | 285° |
| 2026-04-28 19:21 | -18.98622 | 48.33910 | 9814 ft | 304 kts | 285° |
| 2026-04-28 19:21 | -18.98026 | 48.31796 | 9814 ft | 304 kts | 285° |
| 2026-04-28 19:21 | -18.97423 | 48.29653 | 9824 ft | 304 kts | 285° |
| 2026-04-28 19:22 | -18.96818 | 48.27514 | 9820 ft | 304 kts | 286° |
| 2026-04-28 19:22 | -18.96416 | 48.26094 | 9820 ft | 304 kts | 286° |
| 2026-04-28 19:22 | -18.95607 | 48.23237 | 9818 ft | 304 kts | 286° |
| 2026-04-28 19:22 | -18.95000 | 48.21094 | 9831 ft | 303 kts | 286° |
| 2026-04-28 19:23 | -18.94399 | 48.18962 | 9834 ft | 303 kts | 286° |
| 2026-04-28 19:23 | -18.93800 | 48.16830 | 9833 ft | 303 kts | 286° |
| 2026-04-28 19:23 | -18.93212 | 48.14694 | 9834 ft | 303 kts | 285° |
| 2026-04-28 19:23 | -18.92666 | 48.12542 | 9845 ft | 303 kts | 284° |
| 2026-04-28 19:24 | -18.92133 | 48.10391 | 9841 ft | 303 kts | 284° |
| 2026-04-28 19:24 | -18.91598 | 48.08227 | 9841 ft | 303 kts | 284° |
| 2026-04-28 19:24 | -18.91065 | 48.06077 | 9847 ft | 303 kts | 284° |
| 2026-04-28 19:24 | -18.90531 | 48.03925 | 9851 ft | 303 kts | 284° |
| 2026-04-28 19:25 | -18.89998 | 48.01770 | 9851 ft | 303 kts | 284° |
| 2026-04-28 19:25 | -18.89473 | 47.99622 | 9851 ft | 300 kts | 283° |
| 2026-04-28 19:25 | -18.89037 | 47.97474 | 9846 ft | 299 kts | 280° |
| 2026-04-28 19:25 | -18.88647 | 47.95336 | 9869 ft | 300 kts | 280° |
| 2026-04-28 19:26 | -18.88260 | 47.93173 | 9850 ft | 300 kts | 280° |
| 2026-04-28 19:26 | -18.87874 | 47.91010 | 9855 ft | 299 kts | 280° |
| 2026-04-28 19:26 | -18.87487 | 47.88853 | 9850 ft | 300 kts | 280° |
| 2026-04-28 19:26 | -18.87099 | 47.86688 | 9853 ft | 300 kts | 280° |
| 2026-04-28 19:27 | -18.86710 | 47.84521 | 9859 ft | 300 kts | 280° |
| 2026-04-28 19:27 | -18.86320 | 47.82352 | 9855 ft | 300 kts | 280° |
| 2026-04-28 19:27 | -18.85931 | 47.80194 | 9866 ft | 300 kts | 280° |
| 2026-04-28 19:27 | -18.85542 | 47.78037 | 9877 ft | 297 kts | 280° |
| 2026-04-28 19:28 | -18.85157 | 47.75892 | 9874 ft | 298 kts | 280° |
| 2026-04-28 19:28 | -18.84772 | 47.73749 | 9875 ft | 298 kts | 280° |
| 2026-04-28 19:28 | -18.84384 | 47.71597 | 9869 ft | 298 kts | 280° |
| 2026-04-28 19:28 | -18.83997 | 47.69449 | 9877 ft | 297 kts | 280° |
| 2026-04-28 19:29 | -18.83609 | 47.67302 | 9879 ft | 298 kts | 280° |
| 2026-04-28 19:29 | -18.83352 | 47.65880 | 9880 ft | 298 kts | 280° |
| 2026-04-28 19:29 | -18.82834 | 47.63005 | 9880 ft | 298 kts | 280° |
| 2026-04-28 19:29 | -18.82445 | 47.60858 | 9879 ft | 298 kts | 280° |
| 2026-04-28 19:30 | -18.82061 | 47.58740 | 9877 ft | 298 kts | 280° |
| 2026-04-28 19:30 | -18.81673 | 47.56593 | 9882 ft | 298 kts | 280° |
| 2026-04-28 19:30 | -18.81281 | 47.54413 | 9880 ft | 298 kts | 280° |
| 2026-04-28 19:30 | -18.81000 | 47.52271 | 9873 ft | 298 kts | 275° |
| 2026-04-28 19:31 | -18.80836 | 47.50075 | 9715 ft | 302 kts | 273° |
| 2026-04-28 19:31 | -18.80692 | 47.47862 | 9486 ft | 302 kts | 273° |
| 2026-04-28 19:31 | -18.80641 | 47.45654 | 9252 ft | 300 kts | 269° |
| 2026-04-28 19:31 | -18.80691 | 47.43480 | 9020 ft | 290 kts | 267° |
| 2026-04-28 19:32 | -18.80753 | 47.41407 | 8787 ft | 275 kts | 267° |
| 2026-04-28 19:32 | -18.80807 | 47.39440 | 8545 ft | 263 kts | 267° |
| 2026-04-28 19:32 | -18.80853 | 47.37543 | 8308 ft | 256 kts | 267° |
| 2026-04-28 19:32 | -18.80899 | 47.35687 | 8075 ft | 249 kts | 267° |
| 2026-04-28 19:33 | -18.80945 | 47.33890 | 7842 ft | 248 kts | 267° |
| 2026-04-28 19:33 | -18.80987 | 47.32070 | 7626 ft | 248 kts | 267° |
| 2026-04-28 19:33 | -18.81029 | 47.30236 | 7421 ft | 253 kts | 267° |
| 2026-04-28 19:33 | -18.81069 | 47.28363 | 7211 ft | 256 kts | 267° |
| 2026-04-28 19:34 | -18.81106 | 47.26485 | 6993 ft | 257 kts | 267° |
| 2026-04-28 19:34 | -18.81143 | 47.24617 | 6965 ft | 254 kts | 267° |
| 2026-04-28 19:34 | -18.81179 | 47.22746 | 6966 ft | 256 kts | 267° |
| 2026-04-28 19:34 | -18.81218 | 47.20862 | 6967 ft | 258 kts | 267° |
| 2026-04-28 19:35 | -18.81257 | 47.18974 | 6964 ft | 257 kts | 267° |
| 2026-04-28 19:35 | -18.81296 | 47.17078 | 6969 ft | 259 kts | 268° |
| 2026-04-28 19:35 | -18.81346 | 47.15178 | 6979 ft | 259 kts | 267° |
| 2026-04-28 19:35 | -18.81405 | 47.13270 | 6967 ft | 260 kts | 267° |
| 2026-04-28 19:36 | -18.81220 | 47.11386 | 6907 ft | 259 kts | 288° |
| 2026-04-28 19:36 | -18.80133 | 47.09923 | 6886 ft | 257 kts | 327° |
| 2026-04-28 19:36 | -18.78458 | 47.09461 | 6885 ft | 250 kts | 6° |
| 2026-04-28 19:36 | -18.76922 | 47.10171 | 6914 ft | 237 kts | 44° |
| 2026-04-28 19:37 | -18.76159 | 47.11570 | 6971 ft | 208 kts | 72° |
| 2026-04-28 19:37 | -18.75876 | 47.12504 | 6982 ft | 197 kts | 75° |
| 2026-04-28 19:37 | -18.75400 | 47.14320 | 6969 ft | 188 kts | 81° |
| 2026-04-28 19:37 | -18.75163 | 47.15671 | 6970 ft | 187 kts | 82° |
| 2026-04-28 19:38 | -18.75131 | 47.17026 | 6956 ft | 189 kts | 96° |
| 2026-04-28 19:38 | -18.75324 | 47.18404 | 6968 ft | 191 kts | 99° |
| 2026-04-28 19:38 | -18.75532 | 47.19795 | 6978 ft | 194 kts | 100° |
| 2026-04-28 19:38 | -18.75740 | 47.21191 | 6975 ft | 189 kts | 100° |
| 2026-04-28 19:39 | -18.75939 | 47.22540 | 6973 ft | 184 kts | 100° |
| 2026-04-28 19:39 | -18.76135 | 47.23866 | 6967 ft | 182 kts | 100° |
| 2026-04-28 19:39 | -18.76329 | 47.25175 | 6964 ft | 179 kts | 100° |
| 2026-04-28 19:39 | -18.76518 | 47.26456 | 6966 ft | 176 kts | 100° |
| 2026-04-28 19:40 | -18.76703 | 47.27713 | 6980 ft | 171 kts | 100° |
| 2026-04-28 19:40 | -18.76884 | 47.28947 | 6971 ft | 170 kts | 101° |
| 2026-04-28 19:40 | -18.77065 | 47.30169 | 6975 ft | 167 kts | 101° |
| 2026-04-28 19:40 | -18.77244 | 47.31376 | 6954 ft | 165 kts | 100° |
| 2026-04-28 19:41 | -18.77416 | 47.32542 | 6761 ft | 154 kts | 101° |
| 2026-04-28 19:41 | -18.77573 | 47.33615 | 6580 ft | 143 kts | 101° |
| 2026-04-28 19:41 | -18.77723 | 47.34629 | 6405 ft | 137 kts | 101° |
| 2026-04-28 19:41 | -18.77870 | 47.35624 | 6233 ft | 139 kts | 101° |
| 2026-04-28 19:42 | -18.78022 | 47.36649 | 6056 ft | 142 kts | 101° |
| 2026-04-28 19:42 | -18.78173 | 47.37665 | 5878 ft | 139 kts | 101° |
| 2026-04-28 19:42 | -18.78319 | 47.38654 | 5691 ft | 137 kts | 100° |
| 2026-04-28 19:42 | -18.78419 | 47.39326 | 5577 ft | 138 kts | 101° |
| 2026-04-28 19:43 | -18.78617 | 47.40666 | 5334 ft | 140 kts | 100° |
| 2026-04-28 19:43 | -18.78766 | 47.41676 | 5124 ft | 139 kts | 99° |
| 2026-04-28 19:43 | -18.78909 | 47.42682 | 4928 ft | 138 kts | 99° |
| 2026-04-28 19:43 | -18.79054 | 47.43686 | 4744 ft | 139 kts | 99° |
| 2026-04-28 19:44 | -18.79207 | 47.44691 | 4581 ft | 138 kts | 99° |
| 2026-04-28 19:44 | -18.79366 | 47.45706 | 4365 ft | 142 kts | 99° |
| 2026-04-28 19:44 | -18.79525 | 47.46735 | 4180 ft | 141 kts | 99° |
| 2026-04-28 19:44 | -18.79671 | 47.47723 | 4138 ft | 123 kts | 99° |
| 2026-04-28 19:45 | -18.79768 | 47.48380 | 4128 ft | 61 kts | 98° |
| 2026-04-28 19:45 | -18.79821 | 47.48650 | 4136 ft | 26 kts | 121° |
| 2026-04-28 19:45 | -18.79805 | 47.48695 | 4127 ft | 8 kts | 293° |
| 2026-04-28 19:45 | -18.79798 | 47.48611 | 4129 ft | 15 kts | 269° |
| 2026-04-28 19:46 | -18.79797 | 47.48493 | 4131 ft | 16 kts | 277° |
| 2026-04-28 19:46 | -18.79775 | 47.48361 | 4134 ft | 21 kts | 278° |
| 2026-04-28 19:46 | -18.79757 | 47.48214 | 4134 ft | 17 kts | 274° |
| 2026-04-28 19:46 | -18.79790 | 47.48125 | 4134 ft | 12 kts | 214° |
| 2026-04-28 19:47 | -18.79842 | 47.48107 | 4130 ft | 4 kts | 184° |
| 2026-04-28 19:47 | -18.79887 | 47.48098 | 4133 ft | 9 kts | 205° |
| 2026-04-28 19:47 | -18.79898 | 47.48030 | 4134 ft | 12 kts | 279° |
| 2026-04-28 19:47 | -18.79884 | 47.47935 | 4134 ft | 15 kts | 278° |
| 2026-04-28 19:48 | -18.79861 | 47.47821 | 4129 ft | 17 kts | 292° |
| 2026-04-28 19:48 | -18.79895 | 47.47759 | 4131 ft | 9 kts | 187° |
| 2026-04-28 19:48 | -18.79902 | 47.47758 | 4134 ft | 0 kts | 187° |